Flight Track Log - Related Links

Times and Time Zones

All times are in EDT time to prevent confusion due to time zone crossing. See the N18308 flight status page for this flight to view local times or setup timezone preferences in your user account.

Time Position Orientation Groundspeed Altitude Reporting Facility
EDT Latitude Longitude Course Direction KTS MPH feet Rate Location/Type
Fri 02:44:55 PM 42.4000 -87.8500 173° South 88 101 1,600  Level Chicago TRACON
Fri 02:45:49 PM 42.3833 -87.8167 124° Southeast 103 119 2,300 796 Climbing Chicago TRACON
Fri 02:46:33 PM 42.3769 -87.8131 157° South 38 44 2,900 906 Climbing Chicago Center
Fri 02:47:35 PM 42.3481 -87.8194 189° South 93 107 3,900 1,065 Climbing Chicago Center
Fri 02:48:37 PM 42.3197 -87.8489 218° Southwest 110 127 5,100 1,008 Climbing Chicago Center
Fri 02:49:40 PM 42.2925 -87.8767 217° Southwest 113 130 6,000 384 Climbing Chicago Center
Fri 02:50:00 PM 42.1181 -87.8447 173° South  Level FlightAware Approximate
Fri 02:50:42 PM 42.2586 -87.9058 212° Southwest 146 168 5,900  Level Chicago Center
Fri 02:51:44 PM 42.2178 -87.9383 211° Southwest 160 184 6,000  Climbing Chicago Center
Fri 02:52:46 PM 42.1722 -87.9242 167° South 166 191 5,900 -48 Descending Chicago Center
Fri 02:53:48 PM 42.1219 -87.9172 174° South 168 193 5,900  Level Chicago Center
Fri 02:54:50 PM 42.0756 -87.9200 183° South 168 193 5,900  Level Chicago Center
Fri 02:55:53 PM 42.0256 -87.9200 180° South 167 192 5,900  Level Chicago Center
Fri 02:56:55 PM 41.9792 -87.9222 182° South 166 191 5,900  Level Chicago Center
Fri 02:57:57 PM 41.9294 -87.9247 182° South 167 192 5,900  Level Chicago Center
Fri 02:58:59 PM 41.8842 -87.9178 173° South 165 190 5,900 339 Level Chicago Center
Fri 03:00:01 PM 41.8378 -87.9064 170° South 162 186 6,600 774 Climbing Chicago Center
Fri 03:01:03 PM 41.7997 -87.8936 166° South 143 165 7,500 871 Climbing Chicago Center
Fri 03:02:05 PM 41.7608 -87.8844 170° South 134 154 8,400 919 Climbing Chicago Center
Fri 03:03:07 PM 41.7244 -87.8800 175° South 130 150 9,400 1,016 Climbing Chicago Center
Fri 03:04:09 PM 41.6844 -87.8719 171° South 133 153 10,500 762 Climbing Chicago Center
Fri 03:05:13 PM 41.6461 -87.8664 174° South 140 161 11,000 240 Climbing Chicago Center
Fri 03:06:14 PM 41.5922 -87.8561 172° South 183 211 11,000  Level Chicago Center
Fri 03:07:16 PM 41.5406 -87.8467 172° South 185 213 11,000 -48 Level Chicago Center
Fri 03:08:18 PM 41.4861 -87.8358 172° South 186 214 10,900 435 Descending Chicago Center
Fri 03:09:20 PM 41.4394 -87.8267 172° South 169 194 11,900 968 Climbing Chicago Center
Fri 03:10:22 PM 41.3953 -87.8183 172° South 153 176 12,900 484 Climbing Chicago Center
Fri 03:11:24 PM 41.3494 -87.8094 172° South 169 194 12,900  Level Chicago Center
Fri 03:12:26 PM 41.2944 -87.8003 173° South 183 211 12,900  Level Chicago Center
Fri 03:13:29 PM 41.2483 -87.7739 157° South 188 216 12,900  Level Chicago Center
Fri 03:14:31 PM 41.2044 -87.7272 141° Southeast 190 219 12,900 -97 Level Chicago Center
Fri 03:15:33 PM 41.1625 -87.6856 143° Southeast 189 217 12,700 -242 Descending Chicago Center
Fri 03:16:35 PM 41.1153 -87.6381 143° Southeast 196 226 12,400 -242 Descending Chicago Center
Fri 03:17:37 PM 41.0717 -87.5939 143° Southeast 197 227 12,200 -242 Descending Chicago Center
Fri 03:18:39 PM 41.0244 -87.5458 142° Southeast 201 231 11,900 -290 Descending Chicago Center
Fri 03:19:41 PM 40.9806 -87.5011 142° Southeast 200 230 11,600 -290 Descending Chicago Center
Fri 03:20:43 PM 40.9369 -87.4575 143° Southeast 198 228 11,300 -288 Descending Chicago Center
Fri 03:21:46 PM 40.8944 -87.4161 144° Southeast 197 227 11,000 -192 Descending Chicago Center
Fri 03:22:48 PM 40.8533 -87.3728 141° Southeast 193 222 10,900 -48 Descending Chicago Center
Fri 03:23:50 PM 40.8125 -87.3317 143° Southeast 188 216 10,900  Level Chicago Center
Fri 03:24:52 PM 40.7647 -87.2850 144° Southeast 181 208 10,900  Level Chicago Center
Fri 03:25:54 PM 40.7250 -87.2447 142° Southeast 181 208 10,900  Level Chicago Center
Fri 03:26:56 PM 40.6856 -87.2039 142° Southeast 181 208 10,900  Level Chicago Center
Fri 03:27:58 PM 40.6456 -87.1653 144° Southeast 180 207 10,900  Level Chicago Center
Fri 03:29:00 PM 40.6061 -87.1244 142° Southeast 180 207 10,900  Level Chicago Center
Fri 03:30:03 PM 40.5628 -87.0819 143° Southeast 180 207 10,900  Level Chicago Center
Fri 03:31:05 PM 40.5181 -87.0600 160° South 173 199 10,900  Level Chicago Center
Fri 03:32:07 PM 40.4719 -87.0436 165° South 170 196 10,900  Level Chicago Center
Fri 03:33:09 PM 40.4161 -87.0228 164° South 172 198 10,900  Level Chicago Center
Fri 03:34:11 PM 40.3697 -87.0058 164° South 172 198 10,900  Level Chicago Center
Fri 03:35:13 PM 40.3236 -86.9889 164° South 172 198 10,900  Level Chicago Center
Fri 03:36:15 PM 40.2775 -86.9717 164° South 172 198 10,900  Level Chicago Center
Fri 03:37:18 PM 40.2311 -86.9550 165° South 172 198 10,900  Level Chicago Center
Fri 03:38:20 PM 40.1753 -86.9333 163° South 172 198 10,900 38 Level Chicago Center
Fri 03:39:58 PM 40.1000 -86.9000 161° South 184 212 11,000 38 Climbing Indianapolis TRACON
Fri 03:40:58 PM 40.0500 -86.8833 166° South 168 193 11,000 50 Level Indianapolis TRACON
Fri 03:41:59 PM 40.0000 -86.8667 166° South 170 196 11,100 50 Climbing Indianapolis TRACON
Fri 03:42:58 PM 39.9500 -86.8500 166° South 171 197 11,100 -132 Level Indianapolis TRACON
Fri 03:43:30 PM 39.9453 -86.8497 177° South 172 198 10,900 -145 Descending Chicago Center
Fri 03:44:21 PM 39.8986 -86.8317 163° South 173 199 10,900  Level Indianapolis Center
Fri 03:45:23 PM 39.8519 -86.8150 165° South 173 199 10,900  Level Indianapolis Center
Fri 03:46:25 PM 39.8056 -86.7975 164° South 173 199 10,900  Level Indianapolis Center
Fri 03:47:27 PM 39.7600 -86.7808 164° South 173 199 10,900  Level Indianapolis Center
Fri 03:48:30 PM 39.7125 -86.7633 164° South 174 200 10,900  Level Indianapolis Center
Fri 03:49:32 PM 39.6567 -86.7447 166° South 174 200 10,900  Level Indianapolis Center
Fri 03:50:34 PM 39.6103 -86.7267 163° South 174 200 10,900  Level Indianapolis Center
Fri 03:51:36 PM 39.5647 -86.7094 164° South 174 200 10,900  Level Indianapolis Center
Fri 03:52:38 PM 39.5181 -86.6942 166° South 174 200 10,900  Level Indianapolis Center
Fri 03:53:40 PM 39.4719 -86.6772 164° South 174 200 10,900  Level Indianapolis Center
Fri 03:54:42 PM 39.4164 -86.6578 165° South 174 200 10,900  Level Indianapolis Center
Fri 03:55:44 PM 39.3711 -86.6406 164° South 173 199 10,900  Level Indianapolis Center
Fri 03:56:46 PM 39.3250 -86.6250 165° South 173 199 10,900  Level Indianapolis Center
Fri 03:57:48 PM 39.2792 -86.6086 165° South 173 199 10,900  Level Indianapolis Center
Fri 03:58:51 PM 39.2331 -86.5919 164° South 173 199 10,900 48 Level Indianapolis Center
Fri 03:59:53 PM 39.1772 -86.5725 165° South 173 199 11,000 48 Climbing Indianapolis Center
Fri 04:00:55 PM 39.1303 -86.5561 165° South 173 199 11,000 -48 Level Indianapolis Center
Fri 04:01:57 PM 39.0844 -86.5389 164° South 173 199 10,900 -48 Descending Indianapolis Center
Fri 04:02:59 PM 39.0375 -86.5228 165° South 173 199 10,900  Level Indianapolis Center
Fri 04:04:02 PM 38.9914 -86.5061 164° South 173 199 10,900 48 Level Indianapolis Center
Fri 04:05:04 PM 38.9447 -86.4908 166° South 173 199 11,000 48 Climbing Indianapolis Center
Fri 04:06:06 PM 38.8889 -86.4708 164° South 173 199 11,000  Level Indianapolis Center
Fri 04:07:08 PM 38.8400 -86.4539 165° South 173 199 11,000  Level Indianapolis Center
Fri 04:08:10 PM 38.7933 -86.4364 164° South 174 200 11,000  Level Indianapolis Center
Fri 04:09:12 PM 38.7458 -86.4211 166° South 174 200 11,000 -48 Level Indianapolis Center
Fri 04:10:14 PM 38.6983 -86.4044 165° South 174 200 10,900  Descending Indianapolis Center
Fri 04:11:16 PM 38.6514 -86.3872 164° South 174 200 11,000 48 Climbing Indianapolis Center
Fri 04:12:18 PM 38.6044 -86.3706 164° South 174 200 11,000  Level Indianapolis Center
Fri 04:13:20 PM 38.5481 -86.3517 165° South 174 200 11,000 -48 Level Indianapolis Center
Fri 04:14:23 PM 38.5011 -86.3347 164° South 174 200 10,900  Descending Indianapolis Center
Fri 04:15:25 PM 38.4547 -86.3192 165° South 174 200 11,000 48 Climbing Indianapolis Center
Fri 04:16:27 PM 38.4069 -86.3022 164° South 174 200 11,000  Level Indianapolis Center
Fri 04:17:29 PM 38.3606 -86.2856 164° South 174 200 11,000  Level Indianapolis Center
Fri 04:18:31 PM 38.3139 -86.2697 165° South 174 200 11,000 -48 Level Indianapolis Center
Fri 04:19:33 PM 38.2675 -86.2533 164° South 174 200 10,900  Descending Indianapolis Center
Fri 04:20:35 PM 38.2094 -86.2336 165° South 174 200 11,000 48 Climbing Indianapolis Center
Fri 04:21:37 PM 38.1631 -86.2178 165° South 174 200 11,000  Level Indianapolis Center
Fri 04:22:39 PM 38.1153 -86.2006 164° South 174 200 11,000 -48 Level Indianapolis Center
Fri 04:23:41 PM 38.0672 -86.1842 165° South 175 201 10,900  Descending Indianapolis Center
Fri 04:24:43 PM 38.0194 -86.1675 165° South 175 201 11,000 48 Climbing Indianapolis Center
Fri 04:25:46 PM 37.9711 -86.1511 165° South 175 201 11,000 -48 Level Indianapolis Center
Fri 04:26:48 PM 37.9231 -86.1358 166° South 176 203 10,900  Descending Indianapolis Center
Fri 04:27:50 PM 37.8658 -86.1144 164° South 176 203 11,000 48 Climbing Indianapolis Center
Fri 04:28:52 PM 37.8183 -86.0989 165° South 176 203 11,000  Level Indianapolis Center
Fri 04:29:54 PM 37.7697 -86.0828 165° South 177 204 11,000  Level Indianapolis Center
Fri 04:30:56 PM 37.7222 -86.0650 164° South 177 204 11,000  Level Indianapolis Center
Fri 04:31:58 PM 37.6753 -86.0494 165° South 177 204 11,000  Level Indianapolis Center
Fri 04:33:00 PM 37.6275 -86.0325 164° South 176 203 11,000  Level Indianapolis Center
Fri 04:34:02 PM 37.5794 -86.0186 167° South 176 203 11,000  Level Indianapolis Center
Fri 04:35:04 PM 37.5239 -85.9989 164° South 176 203 11,000  Level Indianapolis Center
Fri 04:36:07 PM 37.4747 -85.9806 164° South 178 205 11,000  Level Indianapolis Center
Fri 04:37:09 PM 37.4267 -85.9650 166° South 178 205 11,000  Level Indianapolis Center
Fri 04:38:11 PM 37.3775 -85.9489 165° South 178 205 11,000  Level Indianapolis Center
Fri 04:39:13 PM 37.3281 -85.9325 165° South 179 206 11,000  Level Indianapolis Center
Fri 04:40:15 PM 37.2786 -85.9153 165° South 180 207 11,000  Level Indianapolis Center
Fri 04:41:17 PM 37.2214 -85.8967 165° South 180 207 11,000  Level Indianapolis Center
Fri 04:42:20 PM 37.1722 -85.8800 165° South 180 207 11,000  Level Indianapolis Center
Fri 04:43:21 PM 37.1228 -85.8614 163° South 180 207 11,000  Level Indianapolis Center
Fri 04:45:25 PM 37.0239 -85.8297 166° South 181 208 11,000  Level Indianapolis Center
Fri 04:46:27 PM 36.9742 -85.8125 165° South 181 208 11,000  Level Indianapolis Center
Fri 04:47:30 PM 36.9247 -85.7972 166° South 181 208 11,000  Level Indianapolis Center
Fri 04:48:32 PM 36.8661 -85.7764 164° South 182 209 11,000  Level Indianapolis Center
Fri 04:49:34 PM 36.8169 -85.7592 164° South 182 209 11,000  Level Indianapolis Center
Fri 04:50:36 PM 36.7669 -85.7436 166° South 182 209 11,000 46 Level Indianapolis Center
Fri 04:51:44 PM 36.7094 -85.7256 166° South 182 209 11,100 92 Climbing Memphis Center
Fri 04:52:46 PM 36.6636 -85.7100 165° South 182 209 11,200 242 Climbing Memphis Center
Fri 04:53:48 PM 36.6167 -85.6947 165° South 178 205 11,600 194 Climbing Memphis Center
Fri 04:54:50 PM 36.5706 -85.6786 164° South 172 198 11,600  Level Memphis Center
Fri 04:55:52 PM 36.5136 -85.6592 165° South 173 199 11,600  Level Memphis Center
Fri 04:56:54 PM 36.4658 -85.6442 166° South 176 203 11,600  Level Memphis Center
Fri 04:57:57 PM 36.4183 -85.6283 165° South 176 203 11,600  Level Memphis Center
Fri 04:58:59 PM 36.3708 -85.6125 165° South 176 203 11,600  Level Memphis Center
Fri 05:00:01 PM 36.3231 -85.5969 165° South 177 204 11,600  Level Memphis Center
Fri 05:01:03 PM 36.2747 -85.5811 165° South 177 204 11,600  Level Memphis Center
Fri 05:02:05 PM 36.2167 -85.5631 166° South 177 204 11,600  Level Memphis Center
Fri 05:03:07 PM 36.1689 -85.5467 165° South 177 204 11,600  Level Memphis Center
Fri 05:04:09 PM 36.1200 -85.5308 165° South 178 205 11,600  Level Memphis Center
Fri 05:05:11 PM 36.0717 -85.5156 166° South 178 205 11,600  Level Memphis Center
Fri 05:06:13 PM 36.0233 -85.4989 164° South 178 205 11,600 -48 Level Memphis Center
Fri 05:07:15 PM 35.9647 -85.4803 166° South 179 206 11,500 -48 Descending Memphis Center
Fri 05:08:17 PM 35.9161 -85.4647 165° South 179 206 11,500  Level Memphis Center
Fri 05:09:20 PM 35.8675 -85.4489 165° South 179 206 11,500  Level Memphis Center
Fri 05:10:22 PM 35.8186 -85.4325 165° South 179 206 11,500  Level Memphis Center
Fri 05:11:24 PM 35.7700 -85.4175 166° South 179 206 11,500  Level Memphis Center
Fri 05:12:26 PM 35.7219 -85.4022 166° South 180 207 11,500  Level Memphis Center
Fri 05:13:28 PM 35.6647 -85.3828 165° South 179 206 11,500 48 Level Memphis Center
Fri 05:14:30 PM 35.6169 -85.3672 165° South 179 206 11,600 -48 Climbing Memphis Center
Fri 05:15:32 PM 35.5697 -85.3525 166° South 179 206 11,400 -97 Descending Memphis Center
Fri 05:16:34 PM 35.5231 -85.3378 166° South 178 205 11,400  Level Memphis Center
Fri 05:17:36 PM 35.4761 -85.3222 165° South 178 205 11,400 48 Level Memphis Center
Fri 05:18:38 PM 35.4192 -85.3044 166° South 177 204 11,500  Climbing Memphis Center
Fri 05:19:40 PM 35.3714 -85.2881 164° South 177 204 11,400 -48 Descending Memphis Center
Fri 05:20:43 PM 35.3225 -85.2736 166° South 178 205 11,400  Level Memphis Center
Fri 05:21:45 PM 35.2753 -85.2572 164° South 178 205 11,400  Level Memphis Center
Fri 05:22:47 PM 35.2267 -85.2431 167° South 178 205 11,400  Level Memphis Center
Fri 05:23:49 PM 35.1792 -85.2267 164° South 178 205 11,400  Level Memphis Center
Fri 05:24:51 PM 35.1214 -85.2094 166° South 178 205 11,400  Level Memphis Center
Fri 05:25:53 PM 35.0733 -85.1942 165° South 178 205 11,400 48 Level Memphis Center
Fri 05:26:55 PM 35.0239 -85.1797 167° South 179 206 11,500  Climbing Memphis Center
Fri 05:27:57 PM 34.9772 -85.1617 162° South 179 206 11,400  Descending Memphis Center
Fri 05:28:59 PM 34.9286 -85.1436 163° South 179 206 11,500 -242 Climbing Memphis Center
Fri 05:30:01 PM 34.8806 -85.1256 163° South 179 206 10,900 -783 Descending Memphis Center
Fri 05:31:17 PM 34.8144 -85.1014 163° South 180 207 9,700 -926 Descending Atlanta Center
Fri 05:32:17 PM 34.7708 -85.0881 166° South 180 207 8,800 -1,050 Descending Atlanta Center
Fri 05:33:17 PM 34.7228 -85.0700 163° South 180 207 7,600 -1,150 Descending Atlanta Center
Fri 05:34:17 PM 34.6772 -85.0542 164° South 180 207 6,500 -1,050 Descending Atlanta Center
Fri 05:35:17 PM 34.6375 -85.0361 159° South 180 207 5,500 -800 Descending Atlanta Center
Fri 05:36:17 PM 34.5919 -85.0178 162° South 180 207 4,900 -300 Descending Atlanta Center
Fri 05:37:17 PM 34.5439 -85.0072 170° South 180 207 4,900  Level Atlanta Center
Fri 05:38:17 PM 34.4961 -84.9864 160° South 180 207 4,900  Level Atlanta Center
Fri 05:39:17 PM 34.4503 -84.9708 164° South 180 207 4,900  Level Atlanta Center
Fri 05:40:17 PM 34.4044 -84.9528 162° South 180 207 4,900 -50 Level Atlanta Center
Fri 05:41:17 PM 34.3586 -84.9372 164° South 180 207 4,800 -100 Descending Atlanta Center

Login

Don't have an account? Register now (free) for customized features, flight alerts, and more!